Time;durP1;ratioP1;P1;durP2;ratioP2;P2;SDS_P1;SDS_P2;PMS_P1;PMS_P2;Temp;Humidity;BMP_temperature;BMP_pressure;BME280_temperature;BME280_humidity;BME280_pressure;Samples;Min_cycle;Max_cycle;Signal;HPM_P1;HPM_P2
2022/04/17 00:00:14;;;;;;;4.20;3.33;;;5.20;83.40;;;;;;5082044;28;20204;-71
2022/04/17 00:02:40;;;;;;;3.20;2.90;;;5.20;83.60;;;;;;5085316;28;20178;-72
2022/04/17 00:05:07;;;;;;;3.97;3.47;;;5.20;83.80;;;;;;5082912;28;20201;-66
2022/04/17 00:07:33;;;;;;;3.70;3.27;;;5.20;83.20;;;;;;5085322;28;20206;-73
2022/04/17 00:09:59;;;;;;;4.40;3.47;;;5.20;81.40;;;;;;5083452;28;20332;-71
2022/04/17 00:12:26;;;;;;;3.83;3.00;;;5.00;83.40;;;;;;5082835;28;20727;-71
2022/04/17 00:14:52;;;;;;;5.30;3.27;;;4.90;84.10;;;;;;5077629;28;20238;-72
2022/04/17 00:17:18;;;;;;;4.33;3.10;;;4.90;85.40;;;;;;5082265;28;20284;-70
2022/04/17 00:19:44;;;;;;;5.73;4.43;;;4.90;85.10;;;;;;5084953;28;20193;-69
2022/04/17 00:22:11;;;;;;;7.10;4.80;;;5.00;84.90;;;;;;5082684;28;20212;-70
2022/04/17 00:24:36;;;;;;;5.40;4.97;;;5.00;84.30;;;;;;5085074;28;20309;-70
2022/04/17 00:27:02;;;;;;;5.47;4.37;;;4.90;86.20;;;;;;5082475;28;20312;-71
2022/04/17 00:29:27;;;;;;;5.40;4.50;;;4.80;88.50;;;;;;5085165;28;20192;-74
2022/04/17 00:31:54;;;;;;;3.50;3.20;;;4.70;88.70;;;;;;5082797;28;20201;-61
2022/04/17 00:34:19;;;;;;;3.93;3.50;;;4.70;87.80;;;;;;5085600;28;20185;-65
2022/04/17 00:36:45;;;;;;;2.93;2.73;;;4.80;88.00;;;;;;5082569;28;20317;-64
2022/04/17 00:39:12;;;;;;;5.67;2.67;;;4.90;86.80;;;;;;5085047;28;20635;-65
2022/04/17 00:41:38;;;;;;;2.93;2.73;;;4.70;88.40;;;;;;5082973;28;20197;-63
2022/04/17 00:44:13;;;;;;;3.77;2.80;;;4.70;87.90;;;;;;5085080;28;20188;-65
2022/04/17 00:46:40;;;;;;;3.23;2.80;;;4.60;90.10;;;;;;5082623;28;20244;-67
2022/04/17 00:49:06;;;;;;;3.43;2.60;;;4.40;91.60;;;;;;5084056;28;20217;-66
2022/04/17 00:51:32;;;;;;;4.07;3.17;;;4.30;92.40;;;;;;5082848;28;20254;-63
2022/04/17 00:54:00;;;;;;;3.00;2.63;;;4.20;93.90;;;;;;5084921;28;20201;-65
2022/04/17 00:56:26;;;;;;;4.30;3.40;;;4.10;94.60;;;;;;5083183;28;20200;-70
2022/04/17 00:58:52;;;;;;;3.90;3.20;;;4.20;95.00;;;;;;5081962;28;20205;-63
2022/04/17 01:01:18;;;;;;;3.07;2.77;;;4.20;94.90;;;;;;5084679;28;20193;-64
2022/04/17 01:03:44;;;;;;;4.37;2.73;;;4.40;94.20;;;;;;5081890;28;20220;-67
2022/04/17 01:06:10;;;;;;;5.97;3.47;;;4.50;93.10;;;;;;5084508;28;20297;-68
2022/04/17 01:08:41;;;;;;;4.63;4.07;;;4.70;91.30;;;;;;5082781;28;20571;-66
2022/04/17 01:11:10;;;;;;;7.27;3.73;;;4.80;91.10;;;;;;5085472;28;20185;-67
2022/04/17 01:13:42;;;;;;;4.70;2.90;;;4.80;91.40;;;;;;5073624;28;20209;-77
2022/04/17 01:16:08;;;;;;;4.17;3.53;;;4.80;91.30;;;;;;5084766;28;20182;-60
2022/04/17 01:18:56;;;;;;;3.50;2.80;;;4.70;91.80;;;;;;5082945;28;20211;-66
2022/04/17 01:21:25;;;;;;;4.17;3.07;;;4.50;92.90;;;;;;5084571;28;20193;-64
2022/04/17 01:29:20;;;;;;;4.30;3.53;;;4.20;95.10;;;;;;5076468;28;20745;-69
2022/04/17 01:31:46;;;;;;;3.57;3.27;;;4.40;93.90;;;;;;5083929;28;20201;-62
2022/04/17 01:34:16;;;;;;;6.80;3.43;;;4.50;93.20;;;;;;5082860;28;20222;-62
2022/04/17 01:36:45;;;;;;;5.10;3.73;;;4.40;94.20;;;;;;5082878;28;20193;-72
2022/04/17 01:39:11;;;;;;;4.73;3.87;;;4.40;94.20;;;;;;5084634;28;20194;-63
2022/04/17 01:41:38;;;;;;;6.43;3.67;;;4.50;93.30;;;;;;5082025;28;20233;-68
2022/04/17 01:44:04;;;;;;;5.87;3.67;;;4.50;92.80;;;;;;5084319;28;20268;-65
2022/04/17 01:46:29;;;;;;;5.10;3.93;;;4.40;94.20;;;;;;5081499;28;20216;-61
2022/04/17 01:48:55;;;;;;;4.40;4.00;;;4.40;95.50;;;;;;5083576;28;20182;-63
2022/04/17 01:51:21;;;;;;;5.57;4.27;;;4.40;94.70;;;;;;5082266;28;20220;-62
2022/04/17 01:53:47;;;;;;;4.27;3.90;;;4.40;95.20;;;;;;5084233;28;20186;-63
2022/04/17 01:56:12;;;;;;;5.90;4.77;;;4.40;94.80;;;;;;5083504;28;20197;-63
2022/04/17 01:58:38;;;;;;;5.13;4.60;;;4.50;95.30;;;;;;5087691;28;20727;-64
2022/04/17 02:01:04;;;;;;;7.57;4.63;;;4.60;95.30;;;;;;5087586;28;20284;-64
2022/04/17 02:03:30;;;;;;;4.83;4.30;;;4.60;96.10;;;;;;5085494;28;20205;-65
2022/04/17 02:05:55;;;;;;;7.80;5.00;;;4.60;96.90;;;;;;5087220;28;20189;-62
2022/04/17 02:08:21;;;;;;;5.03;4.53;;;4.40;97.50;;;;;;5086079;28;20190;-63
2022/04/17 02:10:46;;;;;;;6.90;4.47;;;4.30;98.90;;;;;;5087430;28;20194;-64
2022/04/17 02:13:12;;;;;;;5.10;4.23;;;4.40;97.90;;;;;;5085649;28;20230;-67
2022/04/17 02:15:37;;;;;;;5.53;4.13;;;4.40;98.10;;;;;;5087258;28;20193;-67
2022/04/17 02:18:03;;;;;;;6.53;4.77;;;4.40;98.00;;;;;;5085365;28;20901;-67
2022/04/17 02:20:28;;;;;;;5.83;5.30;;;4.40;98.40;;;;;;5087803;28;20540;-68
2022/04/17 02:22:54;;;;;;;5.60;4.30;;;4.30;98.60;;;;;;5085328;28;20660;-63
2022/04/17 02:25:20;;;;;;;5.70;4.70;;;4.30;99.30;;;;;;5086516;28;20212;-63
2022/04/17 02:27:45;;;;;;;4.60;4.20;;;4.20;99.90;;;;;;5085311;28;20213;-64
2022/04/17 02:30:11;;;;;;;8.43;4.33;;;4.10;99.90;;;;;;5086705;28;20514;-63
2022/04/17 02:32:36;;;;;;;4.30;3.73;;;4.00;99.90;;;;;;5084351;28;20189;-63
2022/04/17 02:35:03;;;;;;;5.30;4.30;;;3.80;99.90;;;;;;5087739;28;20169;-62
2022/04/17 02:37:28;;;;;;;4.57;4.17;;;3.60;99.90;;;;;;5085514;28;20197;-63
2022/04/17 02:39:55;;;;;;;5.50;3.97;;;3.50;99.90;;;;;;5086172;28;20188;-63
2022/04/17 02:42:21;;;;;;;4.20;3.87;;;3.60;99.90;;;;;;5085243;28;20201;-63
2022/04/17 02:44:46;;;;;;;4.23;3.83;;;3.80;99.90;;;;;;5086928;28;20247;-63
2022/04/17 02:49:56;;;;;;;5.90;3.93;;;4.00;99.90;;;;;;5086899;28;20644;-64
2022/04/17 02:52:21;;;;;;;3.67;3.27;;;3.90;99.90;;;;;;5070721;28;20733;-63
2022/04/17 02:54:47;;;;;;;4.70;3.80;;;3.70;99.90;;;;;;5087204;28;20212;-63
2022/04/17 02:57:12;;;;;;;4.43;3.60;;;3.80;99.90;;;;;;5085402;28;20189;-64
2022/04/17 02:59:38;;;;;;;4.33;3.40;;;3.90;99.90;;;;;;5087244;28;20186;-64
2022/04/17 03:07:34;;;;;;;4.00;3.23;;;4.00;99.90;;;;;;5082408;28;20263;-63
2022/04/17 03:09:59;;;;;;;4.03;3.60;;;3.90;99.90;;;;;;5087036;28;20190;-62
2022/04/17 03:12:25;;;;;;;3.87;3.50;;;3.80;99.90;;;;;;5085055;28;20576;-62
2022/04/17 03:14:50;;;;;;;4.97;3.77;;;3.80;99.90;;;;;;5087210;28;20194;-62
2022/04/17 03:17:16;;;;;;;6.60;5.23;;;3.90;99.90;;;;;;5077492;28;20204;-62
2022/04/17 03:19:41;;;;;;;4.03;3.60;;;3.90;99.90;;;;;;5087024;28;20272;-61
2022/04/17 03:22:07;;;;;;;6.87;4.60;;;3.90;99.90;;;;;;5084782;28;20189;-62
2022/04/17 03:24:32;;;;;;;4.60;4.20;;;3.90;99.90;;;;;;5087130;28;20182;-63
2022/04/17 03:26:58;;;;;;;5.40;4.17;;;3.90;99.90;;;;;;5084323;28;20249;-62
2022/04/17 03:29:24;;;;;;;6.87;4.10;;;3.90;99.90;;;;;;5086845;28;20262;-63
2022/04/17 03:31:49;;;;;;;6.33;4.40;;;3.80;99.90;;;;;;5084516;28;20226;-62
2022/04/17 03:34:15;;;;;;;7.90;4.53;;;3.60;99.90;;;;;;5087247;28;20543;-62
2022/04/17 03:36:40;;;;;;;4.67;3.93;;;3.50;99.90;;;;;;5086872;28;20198;-62
2022/04/17 03:39:07;;;;;;;7.07;4.60;;;3.60;99.90;;;;;;5084515;28;20205;-63
2022/04/17 03:41:32;;;;;;;10.63;5.03;;;3.70;99.90;;;;;;5086220;28;20604;-63
2022/04/17 03:43:58;;;;;;;9.23;5.83;;;3.70;99.90;;;;;;5084545;28;20197;-63
2022/04/17 03:46:23;;;;;;;11.33;5.63;;;3.60;99.90;;;;;;5086052;28;20274;-63
2022/04/17 03:48:49;;;;;;;14.60;7.43;;;3.50;99.90;;;;;;5084298;28;21022;-63
2022/04/17 03:51:14;;;;;;;17.43;9.17;;;3.30;99.90;;;;;;5086089;28;20200;-62
2022/04/17 03:53:40;;;;;;;19.23;9.07;;;3.30;99.90;;;;;;5084416;28;20278;-63
2022/04/17 03:56:05;;;;;;;18.97;8.93;;;3.40;99.90;;;;;;5086023;28;20193;-62
2022/04/17 03:58:31;;;;;;;19.70;9.13;;;3.50;99.90;;;;;;5084282;28;20205;-63
2022/04/17 04:00:56;;;;;;;17.47;8.40;;;3.40;99.90;;;;;;5085963;28;20201;-62
2022/04/17 04:03:22;;;;;;;19.63;8.73;;;3.40;99.90;;;;;;5084161;28;20201;-63
2022/04/17 04:05:47;;;;;;;18.97;9.33;;;3.40;99.90;;;;;;5085843;28;20197;-63
2022/04/17 04:08:13;;;;;;;18.43;9.37;;;3.30;99.90;;;;;;5083894;28;20707;-63
2022/04/17 04:10:38;;;;;;;16.03;7.97;;;3.20;99.90;;;;;;5085977;28;20205;-63
2022/04/17 04:13:04;;;;;;;13.33;7.00;;;3.20;99.90;;;;;;5083787;28;20209;-63
2022/04/17 04:15:30;;;;;;;12.20;7.17;;;3.10;99.90;;;;;;5085545;28;20193;-64
2022/04/17 04:17:55;;;;;;;9.40;6.53;;;3.20;99.90;;;;;;5083545;28;20679;-63
2022/04/17 04:20:21;;;;;;;9.53;5.90;;;3.20;99.90;;;;;;5085381;28;20706;-62
2022/04/17 04:22:46;;;;;;;14.63;6.20;;;3.30;99.90;;;;;;5083626;28;20234;-63
2022/04/17 04:25:12;;;;;;;7.50;5.43;;;3.30;99.90;;;;;;5085401;28;20197;-62
2022/04/17 04:30:21;;;;;;;7.07;5.13;;;3.50;99.90;;;;;;5085941;28;20216;-62
2022/04/17 04:32:55;;;;;;;11.47;6.07;;;3.50;99.90;;;;;;5083698;28;20209;-62
2022/04/17 04:35:21;;;;;;;9.47;6.30;;;3.50;99.90;;;;;;5076543;28;20185;-62
2022/04/17 04:37:48;;;;;;;9.83;6.93;;;3.50;99.90;;;;;;5083727;28;20564;-63
2022/04/17 04:40:13;;;;;;;10.27;6.80;;;3.40;99.90;;;;;;5085404;28;20223;-63
2022/04/17 04:42:39;;;;;;;9.27;6.00;;;3.20;99.90;;;;;;5083356;28;20205;-63
2022/04/17 04:47:50;;;;;;;7.13;5.07;;;3.30;99.90;;;;;;5075815;28;20342;-63
2022/04/17 04:50:16;;;;;;;5.87;4.70;;;3.20;99.90;;;;;;5084871;28;20189;-63
2022/04/17 04:52:42;;;;;;;11.63;6.57;;;3.20;99.90;;;;;;5083419;28;20663;-64
2022/04/17 04:55:07;;;;;;;11.17;5.90;;;3.10;99.90;;;;;;5085107;28;20201;-63
2022/04/17 04:57:36;;;;;;;10.47;5.67;;;3.10;99.90;;;;;;5070723;28;20204;-64
2022/04/17 05:00:05;;;;;;;9.13;5.53;;;3.10;99.90;;;;;;5085182;28;20195;-63
2022/04/17 05:02:31;;;;;;;8.00;5.27;;;3.10;99.90;;;;;;5083173;28;20209;-63
2022/04/17 05:04:56;;;;;;;8.53;5.23;;;3.30;99.90;;;;;;5085325;28;20595;-63
2022/04/17 05:07:22;;;;;;;6.83;4.80;;;3.60;99.90;;;;;;5083507;28;20217;-65
2022/04/17 05:09:47;;;;;;;5.33;4.37;;;3.70;99.90;;;;;;5085205;28;20286;-65
2022/04/17 05:12:14;;;;;;;4.37;3.97;;;3.80;99.90;;;;;;5083224;28;20193;-65
2022/04/17 05:14:41;;;;;;;4.20;3.40;;;3.70;99.90;;;;;;5085555;28;20189;-65
2022/04/17 05:17:08;;;;;;;5.73;4.03;;;3.70;99.90;;;;;;5078322;28;20212;-65
2022/04/17 05:19:33;;;;;;;5.03;4.10;;;3.70;99.90;;;;;;5085205;28;20219;-65
2022/04/17 05:21:59;;;;;;;4.53;3.83;;;3.70;99.90;;;;;;5083118;28;20201;-65
2022/04/17 05:24:27;;;;;;;5.10;3.73;;;4.00;99.90;;;;;;5085151;28;20239;-65
2022/04/17 05:26:53;;;;;;;7.97;4.60;;;4.00;99.90;;;;;;5082127;28;20585;-65
2022/04/17 05:29:19;;;;;;;4.03;3.60;;;4.20;99.90;;;;;;5067067;28;20178;-66
2022/04/17 05:31:46;;;;;;;4.63;4.13;;;4.10;99.90;;;;;;5087144;28;20182;-66
2022/04/17 05:34:11;;;;;;;5.13;3.43;;;4.10;99.90;;;;;;5088430;28;20559;-65
2022/04/17 05:36:36;;;;;;;4.87;4.10;;;4.10;99.90;;;;;;5088645;28;20190;-65
2022/04/17 05:39:03;;;;;;;3.60;3.30;;;4.10;99.90;;;;;;5086432;28;20189;-64
2022/04/17 05:41:29;;;;;;;4.93;4.17;;;4.00;99.90;;;;;;5088648;28;20201;-65
2022/04/17 05:43:57;;;;;;;5.77;4.67;;;4.10;99.90;;;;;;5084881;28;20263;-64
2022/04/17 05:46:23;;;;;;;4.27;3.80;;;4.30;99.90;;;;;;5088357;28;20241;-63
2022/04/17 05:48:49;;;;;;;7.73;3.90;;;4.40;99.90;;;;;;5087492;28;20663;-68
2022/04/17 05:51:14;;;;;;;6.43;3.97;;;4.40;99.90;;;;;;5069677;28;20182;-63
2022/04/17 05:53:40;;;;;;;4.47;3.77;;;4.40;99.90;;;;;;5087068;28;20770;-63
2022/04/17 05:56:06;;;;;;;5.90;4.03;;;4.60;99.90;;;;;;5086885;28;20259;-63
2022/04/17 05:58:32;;;;;;;4.47;4.07;;;4.70;99.90;;;;;;5086604;28;20303;-64
2022/04/17 06:01:02;;;;;;;7.87;4.57;;;5.00;99.90;;;;;;5088890;28;20205;-64
2022/04/17 06:03:28;;;;;;;4.47;3.37;;;5.10;99.90;;;;;;5086575;28;20663;-64
2022/04/17 06:05:53;;;;;;;6.07;4.70;;;5.30;99.90;;;;;;5077465;28;20221;-64
2022/04/17 06:08:19;;;;;;;3.90;3.50;;;5.40;99.90;;;;;;5086567;28;20718;-63
2022/04/17 06:10:44;;;;;;;4.57;4.00;;;5.50;99.90;;;;;;5088379;28;20885;-63
2022/04/17 06:13:10;;;;;;;4.37;3.70;;;5.60;99.90;;;;;;5086206;28;20245;-63
2022/04/17 06:15:35;;;;;;;5.07;4.23;;;5.70;99.90;;;;;;5088198;28;20232;-64
2022/04/17 06:18:01;;;;;;;4.80;3.70;;;6.00;99.90;;;;;;5085943;28;20201;-64
2022/04/17 06:20:26;;;;;;;4.37;3.93;;;6.20;99.90;;;;;;5087998;28;20185;-64
2022/04/17 06:22:52;;;;;;;6.00;3.97;;;6.00;99.90;;;;;;5085669;28;20209;-64
2022/04/17 06:25:17;;;;;;;4.10;3.43;;;6.20;99.90;;;;;;5087548;28;20704;-64
2022/04/17 06:27:47;;;;;;;5.90;3.97;;;6.50;99.30;;;;;;5086570;28;20252;-64
2022/04/17 06:30:15;;;;;;;3.90;3.60;;;6.80;97.90;;;;;;5087887;28;20246;-63
2022/04/17 06:32:41;;;;;;;6.03;3.80;;;6.80;97.50;;;;;;5085819;28;20288;-64
2022/04/17 06:35:08;;;;;;;5.57;3.90;;;6.70;97.40;;;;;;5087875;28;20182;-64
2022/04/17 06:37:47;;;;;;;3.27;3.07;;;6.70;96.90;;;;;;5080958;28;20684;-63
2022/04/17 06:40:28;;;;;;;4.90;3.10;;;6.90;96.50;;;;;;5087664;28;20211;-63
2022/04/17 06:42:57;;;;;;;3.23;2.87;;;7.10;96.30;;;;;;5074777;28;20209;-63
2022/04/17 06:45:25;;;;;;;3.30;3.00;;;7.10;95.80;;;;;;5087697;28;20196;-64
2022/04/17 06:47:50;;;;;;;3.20;2.90;;;7.20;95.50;;;;;;5085320;28;20587;-64
2022/04/17 06:50:18;;;;;;;5.00;2.83;;;7.30;94.30;;;;;;5087450;28;20196;-64
2022/04/17 06:52:44;;;;;;;3.47;3.00;;;7.40;95.10;;;;;;5085483;28;20302;-64
2022/04/17 06:55:11;;;;;;;5.07;3.33;;;7.70;93.40;;;;;;5087529;28;20281;-64
2022/04/17 06:57:39;;;;;;;4.93;3.40;;;7.90;92.90;;;;;;5085568;28;20679;-64
2022/04/17 07:00:07;;;;;;;3.73;2.90;;;8.00;92.10;;;;;;5087545;28;20215;-64
2022/04/17 07:02:32;;;;;;;3.53;2.97;;;8.20;91.70;;;;;;5085062;28;20205;-64
2022/04/17 07:04:58;;;;;;;2.83;2.63;;;8.20;90.80;;;;;;5087511;28;20844;-64
2022/04/17 07:07:23;;;;;;;2.43;2.07;;;8.20;90.50;;;;;;5085227;28;20206;-64
2022/04/17 07:09:49;;;;;;;3.50;2.37;;;8.30;90.20;;;;;;5087322;28;20192;-64
2022/04/17 07:12:16;;;;;;;3.17;2.43;;;8.40;90.00;;;;;;5085319;28;20202;-64
2022/04/17 07:14:41;;;;;;;2.83;2.63;;;8.40;90.00;;;;;;5087502;28;20192;-63
2022/04/17 07:17:07;;;;;;;3.57;2.87;;;8.50;90.50;;;;;;5084834;28;20291;-64
2022/04/17 07:19:32;;;;;;;2.57;2.40;;;8.60;91.00;;;;;;5087238;28;20181;-64
2022/04/17 07:21:58;;;;;;;2.43;1.83;;;8.70;91.00;;;;;;5084718;28;20649;-64
2022/04/17 07:24:24;;;;;;;1.83;1.73;;;9.00;89.30;;;;;;5087433;28;20198;-64
2022/04/17 07:26:53;;;;;;;3.37;2.10;;;9.30;85.60;;;;;;5084710;28;20233;-63
2022/04/17 07:29:22;;;;;;;3.73;2.33;;;9.50;82.30;;;;;;5087223;28;20235;-64
2022/04/17 07:31:51;;;;;;;2.80;2.13;;;9.60;81.50;;;;;;5084744;28;20663;-64
2022/04/17 07:34:18;;;;;;;2.80;2.10;;;9.70;83.00;;;;;;5086917;28;20242;-64
2022/04/17 07:36:44;;;;;;;2.40;2.00;;;9.80;81.90;;;;;;5086350;28;20191;-65
2022/04/17 07:39:10;;;;;;;2.43;2.23;;;9.80;81.10;;;;;;5085169;28;20568;-64
2022/04/17 07:41:36;;;;;;;1.93;1.83;;;9.90;79.10;;;;;;5086691;28;20199;-65
2022/04/17 07:44:01;;;;;;;2.03;1.80;;;10.10;76.50;;;;;;5084680;28;20208;-65
2022/04/17 07:46:26;;;;;;;2.87;2.20;;;10.20;75.00;;;;;;5086295;28;20295;-65
2022/04/17 07:48:52;;;;;;;2.97;2.33;;;10.00;77.20;;;;;;5084509;28;20207;-66
2022/04/17 07:51:17;;;;;;;3.03;2.83;;;10.00;75.80;;;;;;5086315;28;20657;-66
2022/04/17 07:53:43;;;;;;;3.20;2.00;;;10.10;76.60;;;;;;5084239;28;20527;-66
2022/04/17 07:56:10;;;;;;;2.67;2.30;;;10.20;75.50;;;;;;5085996;28;20192;-66
2022/04/17 07:58:36;;;;;;;2.50;2.30;;;10.40;73.70;;;;;;5084295;28;20606;-65
2022/04/17 08:01:10;;;;;;;2.60;2.40;;;10.40;72.30;;;;;;5081773;28;20231;-65
2022/04/17 08:06:06;;;;;;;2.90;2.30;;;10.60;71.60;;;;;;5085977;28;20742;-64
2022/04/17 08:08:36;;;;;;;2.60;2.13;;;10.60;71.40;;;;;;5084380;28;20202;-64
2022/04/17 08:11:02;;;;;;;2.50;1.83;;;10.70;71.20;;;;;;5086039;28;20195;-64
2022/04/17 08:13:27;;;;;;;1.80;1.70;;;10.90;72.80;;;;;;5084314;28;20693;-64
2022/04/17 08:15:53;;;;;;;4.17;2.20;;;11.00;70.80;;;;;;5085319;28;20179;-63
2022/04/17 08:18:21;;;;;;;1.73;1.60;;;11.20;69.90;;;;;;5084157;28;20301;-65
2022/04/17 08:20:47;;;;;;;2.50;1.80;;;11.40;67.80;;;;;;5085738;28;20227;-65
2022/04/17 08:23:13;;;;;;;2.10;2.00;;;11.30;68.00;;;;;;5076773;28;21074;-64
2022/04/17 08:25:38;;;;;;;2.87;2.00;;;11.30;67.60;;;;;;5085438;28;20227;-65
2022/04/17 08:28:05;;;;;;;2.50;2.30;;;11.10;66.80;;;;;;5083856;28;20226;-65
2022/04/17 08:30:32;;;;;;;2.30;2.10;;;11.00;66.90;;;;;;5067757;28;20182;-65
2022/04/17 08:33:03;;;;;;;2.77;2.00;;;11.20;66.30;;;;;;5083921;28;20203;-65
2022/04/17 08:35:30;;;;;;;2.73;1.90;;;11.20;67.20;;;;;;5079738;28;20278;-65
2022/04/17 08:37:59;;;;;;;1.97;1.70;;;11.20;67.90;;;;;;5083450;28;20238;-65
2022/04/17 08:40:26;;;;;;;1.87;1.77;;;11.40;65.80;;;;;;5070536;28;20230;-65
2022/04/17 08:42:53;;;;;;;3.87;2.20;;;11.50;65.70;;;;;;5083618;28;20216;-65
2022/04/17 08:45:18;;;;;;;2.57;2.20;;;11.70;65.90;;;;;;5085300;28;20663;-64
2022/04/17 08:47:44;;;;;;;2.50;2.13;;;11.90;63.90;;;;;;5075649;28;20216;-65
2022/04/17 08:50:12;;;;;;;2.47;2.17;;;12.00;65.30;;;;;;5085175;28;20312;-69
2022/04/17 08:52:38;;;;;;;4.80;2.23;;;12.00;65.00;;;;;;5083531;28;20666;-65
2022/04/17 08:55:05;;;;;;;2.27;2.07;;;12.00;64.90;;;;;;5085576;28;20256;-65
2022/04/17 08:57:30;;;;;;;2.47;2.13;;;12.10;64.70;;;;;;5070136;28;20201;-64
2022/04/17 08:59:56;;;;;;;3.27;2.10;;;12.20;65.70;;;;;;5084862;28;20199;-65
2022/04/17 09:02:22;;;;;;;4.77;2.47;;;12.20;64.40;;;;;;5082888;28;20256;-64
2022/04/17 09:04:47;;;;;;;2.70;1.90;;;12.40;63.60;;;;;;5085460;28;20195;-62
2022/04/17 09:07:13;;;;;;;2.60;2.40;;;12.50;62.00;;;;;;5086901;28;20219;-64
2022/04/17 09:09:49;;;;;;;2.13;1.93;;;12.50;62.90;;;;;;5089173;28;20177;-65
2022/04/17 09:12:19;;;;;;;3.87;2.43;;;12.50;63.30;;;;;;5075575;28;20202;-65
2022/04/17 09:14:44;;;;;;;2.33;2.13;;;12.50;64.90;;;;;;5089370;28;20721;-65
2022/04/17 09:17:10;;;;;;;2.30;2.10;;;12.60;63.30;;;;;;5078371;28;20204;-65
2022/04/17 09:19:37;;;;;;;2.97;2.30;;;12.60;62.40;;;;;;5089389;28;20189;-65
2022/04/17 09:22:02;;;;;;;2.40;2.20;;;12.50;61.10;;;;;;5087278;28;20739;-63
2022/04/17 09:24:28;;;;;;;2.63;2.30;;;12.60;61.60;;;;;;5089627;28;20217;-63
2022/04/17 09:26:56;;;;;;;3.67;2.43;;;12.60;60.90;;;;;;5084432;28;20231;-63
2022/04/17 09:29:29;;;;;;;4.00;2.47;;;12.40;61.90;;;;;;5089393;28;20303;-65
2022/04/17 09:32:07;;;;;;;2.33;2.00;;;12.40;62.30;;;;;;5087268;28;20204;-65
2022/04/17 09:34:45;;;;;;;4.50;2.67;;;12.40;63.30;;;;;;5088747;28;20200;-64
2022/04/17 09:37:18;;;;;;;2.23;2.03;;;12.50;61.30;;;;;;5086134;28;20340;-65
2022/04/17 09:39:44;;;;;;;2.60;2.37;;;12.70;60.60;;;;;;5086108;28;20292;-64
2022/04/17 09:42:11;;;;;;;2.23;2.10;;;13.00;59.30;;;;;;5084667;28;20299;-64
2022/04/17 09:44:47;;;;;;;3.37;2.27;;;13.00;59.00;;;;;;5088742;28;20186;-66
2022/04/17 09:47:16;;;;;;;2.13;1.93;;;13.20;59.40;;;;;;5086187;28;20793;-72
2022/04/17 09:49:52;;;;;;;3.17;2.20;;;13.70;59.00;;;;;;5089005;28;20188;-71
2022/04/17 09:52:18;;;;;;;2.30;2.10;;;13.90;58.10;;;;;;5086576;28;20185;-69
2022/04/17 09:54:44;;;;;;;2.50;1.67;;;14.20;57.30;;;;;;5089289;28;20177;-73
2022/04/17 09:57:12;;;;;;;2.77;2.13;;;14.30;57.70;;;;;;5086351;28;20197;-72
2022/04/17 09:59:38;;;;;;;2.93;2.23;;;14.40;54.90;;;;;;5088713;28;20550;-71
2022/04/17 10:02:07;;;;;;;2.47;2.17;;;14.30;56.20;;;;;;5087580;28;20196;-73
2022/04/17 10:04:35;;;;;;;2.50;2.23;;;14.20;54.90;;;;;;5089096;28;20230;-72
2022/04/17 10:07:04;;;;;;;2.13;1.67;;;13.90;55.00;;;;;;5086671;28;20683;-73
2022/04/17 10:09:30;;;;;;;3.03;2.40;;;13.70;56.40;;;;;;5088762;28;20185;-76
2022/04/17 10:12:02;;;;;;;2.10;1.90;;;13.60;56.70;;;;;;5085963;28;20201;-71
2022/04/17 10:14:28;;;;;;;2.20;2.00;;;13.40;56.00;;;;;;5088577;28;20223;-72
2022/04/17 10:16:55;;;;;;;3.53;1.90;;;13.20;57.00;;;;;;5085681;28;20567;-71
2022/04/17 10:19:24;;;;;;;5.07;2.67;;;13.40;59.50;;;;;;5088584;28;20193;-69
2022/04/17 10:21:50;;;;;;;3.17;2.10;;;13.50;57.20;;;;;;5085534;28;20189;-69
2022/04/17 10:24:17;;;;;;;2.00;1.80;;;13.60;58.10;;;;;;5088109;28;20639;-69
2022/04/17 10:26:51;;;;;;;1.90;1.67;;;13.60;57.90;;;;;;5087097;28;20246;-70
2022/04/17 10:29:31;;;;;;;4.33;1.93;;;13.70;55.70;;;;;;5086385;28;20220;-71
2022/04/17 10:32:34;;;;;;;2.20;2.00;;;13.90;56.30;;;;;;5084280;28;20176;-70
2022/04/17 10:35:28;;;;;;;2.57;1.77;;;14.10;56.00;;;;;;5086218;28;20174;-70
2022/04/17 10:38:23;;;;;;;2.20;1.70;;;14.30;55.90;;;;;;5083471;28;20560;-71
2022/04/17 10:40:55;;;;;;;2.10;1.90;;;14.40;55.20;;;;;;5084625;28;20185;-70
2022/04/17 10:43:21;;;;;;;3.50;2.50;;;14.40;55.20;;;;;;5084539;28;20193;-71
2022/04/17 10:46:07;;;;;;;2.47;2.00;;;14.50;55.90;;;;;;5087015;28;20205;-69
2022/04/17 10:48:42;;;;;;;2.10;1.80;;;14.60;57.80;;;;;;5084518;28;20553;-69
2022/04/17 10:51:13;;;;;;;2.67;1.70;;;14.60;54.60;;;;;;5086920;28;20173;-75
2022/04/17 10:53:57;;;;;;;5.60;2.40;;;14.80;55.60;;;;;;5085771;28;20201;-71
2022/04/17 10:56:23;;;;;;;3.90;2.07;;;14.90;55.40;;;;;;5086850;28;20201;-78
2022/04/17 10:58:56;;;;;;;2.17;1.83;;;15.10;55.30;;;;;;5083494;28;20232;-75
2022/04/17 11:01:43;;;;;;;1.50;1.40;;;15.20;53.60;;;;;;5084706;28;20233;-73
2022/04/17 11:04:27;;;;;;;2.37;1.60;;;15.00;54.00;;;;;;5085147;28;20202;-72
2022/04/17 11:07:05;;;;;;;1.70;1.60;;;15.20;53.20;;;;;;5087315;28;20204;-75
2022/04/17 11:09:39;;;;;;;2.83;1.40;;;15.20;51.70;;;;;;5085801;28;20240;-79
2022/04/17 11:12:10;;;;;;;4.40;1.57;;;15.00;51.90;;;;;;5087263;28;20181;-72
2022/04/17 11:14:39;;;;;;;2.50;1.50;;;15.10;50.70;;;;;;5084905;28;20209;-73
2022/04/17 11:17:08;;;;;;;1.33;1.17;;;15.00;49.90;;;;;;5086401;28;20216;-72
2022/04/17 11:19:36;;;;;;;4.60;1.83;;;15.10;48.80;;;;;;5084727;28;20229;-74
2022/04/17 11:22:04;;;;;;;4.40;2.60;;;15.20;49.60;;;;;;5068566;28;20188;-74
2022/04/17 11:24:54;;;;;;;4.03;1.83;;;15.50;51.00;;;;;;5085584;28;20249;-73
2022/04/17 11:27:41;;;;;;;1.70;1.50;;;16.00;50.70;;;;;;5086485;28;20703;-73
2022/04/17 11:30:13;;;;;;;2.07;1.87;;;16.40;51.20;;;;;;5052710;28;20219;-70
2022/04/17 11:32:38;;;;;;;2.93;1.50;;;16.70;48.20;;;;;;5081920;28;20185;-71
2022/04/17 11:35:07;;;;;;;2.10;1.80;;;16.80;48.90;;;;;;5084491;28;20251;-72
2022/04/17 11:37:34;;;;;;;2.20;1.67;;;17.10;47.80;;;;;;5086906;28;20174;-72
2022/04/17 11:40:14;;;;;;;2.00;1.70;;;17.30;48.30;;;;;;5084423;28;20195;-75
2022/04/17 11:42:43;;;;;;;2.23;1.83;;;17.60;46.80;;;;;;5086362;28;20189;-73
2022/04/17 11:45:10;;;;;;;2.37;2.07;;;17.00;46.00;;;;;;5084091;28;20216;-71
2022/04/17 11:47:43;;;;;;;2.37;1.30;;;17.00;48.20;;;;;;5085805;28;20220;-71
2022/04/17 11:50:11;;;;;;;3.20;1.70;;;17.30;46.10;;;;;;5083733;28;20225;-73
2022/04/17 11:52:37;;;;;;;3.30;2.00;;;17.30;45.70;;;;;;5085656;28;20187;-69
2022/04/17 11:55:05;;;;;;;2.47;2.13;;;16.70;45.00;;;;;;5082965;28;20205;-71
2022/04/17 11:57:30;;;;;;;3.57;1.93;;;16.50;45.90;;;;;;5085474;28;20718;-71
2022/04/17 11:59:57;;;;;;;2.40;1.10;;;16.70;46.00;;;;;;5082349;28;20202;-72
2022/04/17 12:02:28;;;;;;;3.33;1.90;;;16.90;45.50;;;;;;5085952;28;20181;-72
2022/04/17 12:05:12;;;;;;;2.30;1.90;;;17.60;45.30;;;;;;5081207;28;20647;-72
2022/04/17 12:07:38;;;;;;;1.53;1.43;;;17.90;44.10;;;;;;5083896;28;20316;-72
2022/04/17 12:10:08;;;;;;;2.27;2.07;;;17.80;44.30;;;;;;5083694;28;20622;-72
2022/04/17 12:12:38;;;;;;;2.07;1.50;;;17.50;44.30;;;;;;5083682;28;20188;-71
2022/04/17 12:15:05;;;;;;;1.87;1.70;;;17.60;45.30;;;;;;5083428;28;20278;-71
2022/04/17 12:17:32;;;;;;;1.93;1.50;;;17.80;45.40;;;;;;5085127;28;20213;-70
2022/04/17 12:19:58;;;;;;;2.87;2.67;;;17.80;43.40;;;;;;5082712;28;20197;-71
2022/04/17 12:22:24;;;;;;;1.77;1.67;;;17.90;43.20;;;;;;5085272;28;20217;-76
2022/04/17 12:24:50;;;;;;;2.10;1.53;;;17.70;43.20;;;;;;5083686;28;20206;-75
2022/04/17 12:27:19;;;;;;;3.20;3.00;;;18.00;43.60;;;;;;5085612;28;20289;-73
2022/04/17 12:29:57;;;;;;;5.33;4.40;;;18.50;43.80;;;;;;5065842;28;20697;-77
2022/04/17 12:32:23;;;;;;;1.70;1.60;;;18.90;44.60;;;;;;5086075;28;20185;-72
2022/04/17 12:35:03;;;;;;;1.93;1.50;;;19.10;41.70;;;;;;5083738;28;20193;-73
2022/04/17 12:37:33;;;;;;;1.67;1.57;;;19.10;41.40;;;;;;5085472;28;20747;-73
2022/04/17 12:40:18;;;;;;;1.63;1.53;;;18.60;41.90;;;;;;5077043;28;20284;-71
2022/04/17 12:42:44;;;;;;;1.93;1.47;;;18.80;42.50;;;;;;5085189;28;20777;-72
2022/04/17 12:45:21;;;;;;;2.10;1.57;;;18.90;42.20;;;;;;5083829;28;20189;-79
2022/04/17 12:48:00;;;;;;;1.63;1.37;;;18.60;43.10;;;;;;5084195;28;20209;-73
2022/04/17 12:50:25;;;;;;;1.87;1.60;;;18.40;42.30;;;;;;5082893;28;20202;-72
2022/04/17 12:52:58;;;;;;;1.40;1.30;;;18.50;41.90;;;;;;5084050;28;20318;-71
2022/04/17 12:55:37;;;;;;;1.80;1.23;;;19.20;44.40;;;;;;5083412;28;20212;-71
2022/04/17 12:58:03;;;;;;;2.90;1.70;;;20.50;42.70;;;;;;5076650;28;20196;-71
2022/04/17 13:00:30;;;;;;;4.23;1.30;;;21.30;41.10;;;;;;5070371;28;20204;-74
2022/04/17 13:03:12;;;;;;;2.20;1.60;;;21.20;42.30;;;;;;5085341;28;20218;-73
2022/04/17 13:05:38;;;;;;;1.87;1.73;;;21.80;41.00;;;;;;5082836;28;20219;-70
2022/04/17 13:08:05;;;;;;;2.03;1.93;;;21.50;39.30;;;;;;5084596;28;20216;-71
2022/04/17 13:10:31;;;;;;;2.43;1.90;;;21.10;38.70;;;;;;5081067;28;20200;-71
2022/04/17 13:12:56;;;;;;;2.03;1.47;;;21.20;37.50;;;;;;5084791;28;20189;-70
2022/04/17 13:15:29;;;;;;;1.70;1.60;;;20.60;38.80;;;;;;5076609;28;20197;-70
2022/04/17 13:17:54;;;;;;;1.87;1.77;;;21.00;38.70;;;;;;5084879;28;20201;-72